createdAt,value
2018-06-19T00:00:27.099Z,0.00
2018-06-19T00:01:27.350Z,0.00
2018-06-19T00:02:27.590Z,0.00
2018-06-19T00:03:27.838Z,0.00
2018-06-19T00:04:28.081Z,0.00
2018-06-19T00:05:28.316Z,0.00
2018-06-19T00:06:28.559Z,0.00
2018-06-19T00:07:28.793Z,0.00
2018-06-19T00:08:29.041Z,0.00
2018-06-19T00:09:29.284Z,0.00
2018-06-19T00:10:29.517Z,0.00
2018-06-19T00:11:29.770Z,0.00
2018-06-19T00:12:30.014Z,0.00
2018-06-19T00:13:30.255Z,0.00
2018-06-19T00:14:30.490Z,0.00
2018-06-19T00:15:30.723Z,0.00
2018-06-19T00:16:30.966Z,0.00
2018-06-19T00:17:31.211Z,0.00
2018-06-19T00:18:31.437Z,0.00
2018-06-19T00:19:31.685Z,0.00
2018-06-19T00:20:31.936Z,0.00
2018-06-19T00:21:32.185Z,0.00
2018-06-19T00:22:32.432Z,0.00
2018-06-19T00:23:32.676Z,0.00
2018-06-19T00:24:32.923Z,0.00
2018-06-19T00:25:33.176Z,0.00
2018-06-19T00:26:33.410Z,0.00
2018-06-19T00:27:33.645Z,0.00
2018-06-19T00:28:33.884Z,0.00
2018-06-19T00:29:34.118Z,0.00
2018-06-19T00:30:34.374Z,0.00
2018-06-19T00:31:34.610Z,0.00
2018-06-19T00:32:34.861Z,0.00
2018-06-19T00:33:35.104Z,0.00
2018-06-19T00:34:35.346Z,0.00
2018-06-19T00:35:35.591Z,0.00
2018-06-19T00:36:35.839Z,0.00
2018-06-19T00:37:36.061Z,0.00
2018-06-19T00:38:36.307Z,0.00
2018-06-19T00:39:36.557Z,0.00
2018-06-19T00:40:36.782Z,0.00
2018-06-19T00:41:37.075Z,0.00
2018-06-19T00:42:37.299Z,0.00
2018-06-19T00:43:37.539Z,0.00
2018-06-19T00:44:37.789Z,0.00
2018-06-19T00:45:38.008Z,0.00
2018-06-19T00:46:38.257Z,0.00
2018-06-19T00:47:38.487Z,0.00
2018-06-19T00:48:38.744Z,0.00
2018-06-19T00:49:39.001Z,0.00
2018-06-19T00:50:39.222Z,0.00
2018-06-19T00:51:39.454Z,0.00
2018-06-19T00:52:39.710Z,0.00
2018-06-19T00:53:39.948Z,0.00
2018-06-19T00:54:40.187Z,0.00
2018-06-19T00:55:40.419Z,0.00
2018-06-19T00:56:40.654Z,0.00
2018-06-19T00:57:40.898Z,0.00
2018-06-19T00:58:41.134Z,0.00
2018-06-19T00:59:41.375Z,0.00
2018-06-19T01:00:41.610Z,0.00
2018-06-19T01:01:41.867Z,0.00
2018-06-19T01:02:42.096Z,0.00
2018-06-19T01:03:42.328Z,0.00
2018-06-19T01:04:42.565Z,0.00
2018-06-19T01:05:42.800Z,0.00
2018-06-19T01:06:43.069Z,0.00
2018-06-19T01:07:43.288Z,0.00
2018-06-19T01:08:43.532Z,0.00
2018-06-19T01:09:43.772Z,0.00
2018-06-19T01:10:44.003Z,0.00
2018-06-19T01:11:44.260Z,0.00
2018-06-19T01:12:44.500Z,0.00
2018-06-19T01:13:44.746Z,0.00
2018-06-19T01:14:44.974Z,0.00
2018-06-19T01:15:45.206Z,0.00
2018-06-19T01:16:45.462Z,0.00
2018-06-19T01:17:45.683Z,0.00
2018-06-19T01:18:45.914Z,0.00
2018-06-19T01:19:46.174Z,0.00
2018-06-19T01:20:46.424Z,0.00
2018-06-19T01:21:46.660Z,0.00
2018-06-19T01:22:46.945Z,0.00
2018-06-19T01:23:47.164Z,0.00
2018-06-19T01:24:47.402Z,0.00
2018-06-19T01:25:47.617Z,0.00
2018-06-19T01:26:47.860Z,0.00
2018-06-19T01:27:48.101Z,0.00
2018-06-19T01:28:48.344Z,0.00
2018-06-19T01:29:48.602Z,0.00
2018-06-19T01:30:48.856Z,0.00
2018-06-19T01:31:49.107Z,0.00
2018-06-19T01:32:49.340Z,0.00
2018-06-19T01:33:49.571Z,0.00
2018-06-19T01:34:49.806Z,0.00
2018-06-19T01:35:50.060Z,0.00
2018-06-19T01:36:50.290Z,0.00
2018-06-19T01:37:50.531Z,0.00
2018-06-19T01:38:50.765Z,0.00
2018-06-19T01:39:51.004Z,0.00
2018-06-19T01:40:51.238Z,0.00
2018-06-19T01:41:51.493Z,0.00
2018-06-19T01:42:51.697Z,0.00
2018-06-19T01:43:51.944Z,0.00
2018-06-19T01:44:52.174Z,0.00
2018-06-19T01:45:52.431Z,0.00
2018-06-19T01:46:52.671Z,0.00
2018-06-19T01:47:52.933Z,0.00
2018-06-19T01:48:53.159Z,0.00
2018-06-19T01:49:53.412Z,0.00
2018-06-19T01:50:53.661Z,0.00
2018-06-19T01:51:53.895Z,0.00
2018-06-19T01:52:54.123Z,0.00
2018-06-19T01:53:54.368Z,0.00
2018-06-19T01:54:54.603Z,0.00
2018-06-19T01:55:54.860Z,0.00
2018-06-19T01:56:55.096Z,0.00
2018-06-19T01:57:55.339Z,0.00
2018-06-19T01:58:55.593Z,0.00
2018-06-19T01:59:55.837Z,0.00
2018-06-19T02:00:56.069Z,0.00
2018-06-19T02:01:56.331Z,0.00
2018-06-19T02:02:56.560Z,0.00
2018-06-19T02:03:56.806Z,0.00
2018-06-19T02:04:57.043Z,0.00
2018-06-19T02:05:57.269Z,0.00
2018-06-19T02:06:57.511Z,0.00
2018-06-19T02:07:57.741Z,0.00
2018-06-19T02:08:57.985Z,0.00
2018-06-19T02:09:58.216Z,0.00
2018-06-19T02:10:58.476Z,0.00
2018-06-19T02:11:58.697Z,0.00
2018-06-19T02:12:58.937Z,0.00
2018-06-19T02:13:59.190Z,0.00
2018-06-19T02:14:59.446Z,0.00
2018-06-19T02:15:59.672Z,0.00
2018-06-19T02:16:59.928Z,0.00
2018-06-19T02:18:00.170Z,0.00
2018-06-19T02:19:00.387Z,0.00
2018-06-19T02:20:00.629Z,0.00
2018-06-19T02:21:00.907Z,0.00
2018-06-19T02:22:01.137Z,0.00
2018-06-19T02:23:01.399Z,0.00
2018-06-19T02:24:01.648Z,0.00
2018-06-19T02:25:01.861Z,4.00
2018-06-19T02:26:02.105Z,4.00
2018-06-19T02:27:02.340Z,0.00
2018-06-19T02:28:02.582Z,0.00
2018-06-19T02:29:02.824Z,4.00
2018-06-19T02:30:03.091Z,4.00
2018-06-19T02:31:03.314Z,4.00
2018-06-19T02:32:03.556Z,4.00
2018-06-19T02:33:03.812Z,4.00
2018-06-19T02:34:04.036Z,4.00
2018-06-19T02:35:04.271Z,4.00
2018-06-19T02:36:04.511Z,8.00
2018-06-19T02:37:04.754Z,8.00
2018-06-19T02:38:05.027Z,12.00
2018-06-19T02:39:05.226Z,12.00
2018-06-19T02:40:05.502Z,16.00
2018-06-19T02:41:05.709Z,12.00
2018-06-19T02:42:05.945Z,16.00
2018-06-19T02:43:06.198Z,20.00
2018-06-19T02:44:06.436Z,24.00
2018-06-19T02:45:06.680Z,28.00
2018-06-19T02:46:06.917Z,32.00
2018-06-19T02:47:07.164Z,36.00
2018-06-19T02:48:07.432Z,40.00
2018-06-19T02:49:07.671Z,44.00
2018-06-19T02:50:07.907Z,52.00
2018-06-19T02:51:08.152Z,56.00
2018-06-19T02:52:08.401Z,60.00
2018-06-19T02:53:08.629Z,68.00
2018-06-19T02:54:08.866Z,76.00
2018-06-19T02:55:09.101Z,88.00
2018-06-19T02:56:09.333Z,96.00
2018-06-19T02:57:09.583Z,104.00
2018-06-19T02:58:09.815Z,116.00
2018-06-19T02:59:10.066Z,128.00
2018-06-19T03:00:10.305Z,144.00
2018-06-19T03:01:10.549Z,160.00
2018-06-19T03:02:10.791Z,172.00
2018-06-19T03:03:11.047Z,188.00
2018-06-19T03:04:11.272Z,208.00
2018-06-19T03:05:11.508Z,228.00
2018-06-19T03:06:11.757Z,248.00
2018-06-19T03:07:11.984Z,272.00
2018-06-19T03:08:12.235Z,296.00
2018-06-19T03:09:12.483Z,316.00
2018-06-19T03:10:12.726Z,328.00
2018-06-19T03:11:12.971Z,336.00
2018-06-19T03:12:13.186Z,340.00
2018-06-19T03:13:13.436Z,340.00
2018-06-19T03:14:13.673Z,324.00
2018-06-19T03:15:13.909Z,300.00
2018-06-19T03:16:14.162Z,284.00
2018-06-19T03:17:14.420Z,284.00
2018-06-19T03:18:14.645Z,288.00
2018-06-19T03:19:14.974Z,300.00
2018-06-19T03:20:15.117Z,300.00
2018-06-19T03:21:15.368Z,284.00
2018-06-19T03:22:15.601Z,296.00
2018-06-19T03:23:15.840Z,332.00
2018-06-19T03:24:16.071Z,352.00
2018-06-19T03:25:16.303Z,364.00
2018-06-19T03:26:16.559Z,408.00
2018-06-19T03:27:16.807Z,444.00
2018-06-19T03:28:17.048Z,456.00
2018-06-19T03:29:17.284Z,464.00
2018-06-19T03:30:17.545Z,468.00
2018-06-19T03:31:17.754Z,476.00
2018-06-19T03:32:18.020Z,480.00
2018-06-19T03:33:18.246Z,500.00
2018-06-19T03:34:18.485Z,548.00
2018-06-19T03:35:18.715Z,604.00
2018-06-19T03:36:18.948Z,704.00
2018-06-19T03:37:19.203Z,788.00
2018-06-19T03:38:19.442Z,856.00
2018-06-19T03:39:19.665Z,956.00
2018-06-19T03:40:19.911Z,1056.00
2018-06-19T03:41:20.147Z,1168.00
2018-06-19T03:42:20.399Z,1240.00
2018-06-19T03:43:20.640Z,1260.00
2018-06-19T03:44:20.871Z,1276.00
2018-06-19T03:45:21.124Z,1252.00
2018-06-19T03:46:21.374Z,1168.00
2018-06-19T03:47:21.607Z,1080.00
2018-06-19T03:48:21.823Z,1072.00
2018-06-19T03:49:22.055Z,1096.00
2018-06-19T03:50:22.321Z,1104.00
2018-06-19T03:51:22.559Z,1176.00
2018-06-19T03:52:22.806Z,1272.00
2018-06-19T03:53:23.054Z,1320.00
2018-06-19T03:54:23.301Z,1348.00
2018-06-19T03:55:23.565Z,1356.00
2018-06-19T03:56:23.817Z,1440.00
2018-06-19T03:57:24.048Z,1588.00
2018-06-19T03:58:24.293Z,1688.00
2018-06-19T03:59:24.519Z,1752.00
2018-06-19T04:00:24.762Z,1728.00
2018-06-19T04:01:25.051Z,1648.00
2018-06-19T04:02:25.249Z,1628.00
2018-06-19T04:03:25.484Z,1560.00
2018-06-19T04:04:25.728Z,1464.00
2018-06-19T04:05:25.968Z,1388.00
2018-06-19T04:06:26.214Z,1396.00
2018-06-19T04:07:26.454Z,1304.00
2018-06-19T04:08:26.694Z,1312.00
2018-06-19T04:09:26.937Z,1216.00
2018-06-19T04:10:27.209Z,1112.00
2018-06-19T04:11:27.411Z,1156.00
2018-06-19T04:12:27.650Z,1260.00
2018-06-19T04:13:27.892Z,1332.00
2018-06-19T04:14:28.142Z,1288.00
2018-06-19T04:15:28.374Z,1348.00
2018-06-19T04:16:28.636Z,1448.00
2018-06-19T04:17:28.888Z,1520.00
2018-06-19T04:18:29.129Z,1668.00
2018-06-19T04:19:29.366Z,1660.00
2018-06-19T04:20:29.610Z,1604.00
2018-06-19T04:21:29.850Z,1560.00
2018-06-19T04:22:30.102Z,1628.00
2018-06-19T04:23:30.340Z,1636.00
2018-06-19T04:24:30.585Z,1720.00
2018-06-19T04:25:30.833Z,1908.00
2018-06-19T04:26:31.093Z,2232.00
2018-06-19T04:27:31.352Z,2300.00
2018-06-19T04:28:31.597Z,2460.00
2018-06-19T04:29:31.856Z,2648.00
2018-06-19T04:30:32.098Z,2556.00
2018-06-19T04:31:32.343Z,2736.00
2018-06-19T04:32:32.566Z,3088.00
2018-06-19T04:33:32.799Z,3236.00
2018-06-19T04:34:33.040Z,3220.00
2018-06-19T04:35:33.283Z,3260.00
2018-06-19T04:36:33.537Z,3296.00
2018-06-19T04:37:33.758Z,3268.00
2018-06-19T04:38:34.002Z,3388.00
2018-06-19T04:39:34.252Z,3720.00
2018-06-19T04:40:34.489Z,4128.00
2018-06-19T04:41:34.736Z,4296.00
2018-06-19T04:42:34.965Z,4300.00
2018-06-19T04:43:35.206Z,4448.00
2018-06-19T04:44:35.448Z,4408.00
2018-06-19T04:45:35.692Z,4648.00
2018-06-19T04:46:35.929Z,4668.00
2018-06-19T04:47:36.170Z,4764.00
2018-06-19T04:48:36.419Z,4800.00
2018-06-19T04:49:36.656Z,4744.00
2018-06-19T04:50:36.900Z,4732.00
2018-06-19T04:51:37.141Z,4748.00
2018-06-19T04:52:37.363Z,4840.00
2018-06-19T04:53:37.606Z,4756.00
2018-06-19T04:54:37.849Z,4612.00
2018-06-19T04:55:38.091Z,4616.00
2018-06-19T04:56:38.322Z,4652.00
2018-06-19T04:57:38.566Z,4688.00
2018-06-19T04:58:38.806Z,4824.00
2018-06-19T04:59:39.047Z,5064.00
2018-06-19T05:00:39.919Z,6220.00
2018-06-19T05:01:39.698Z,6848.00
2018-06-19T05:02:39.952Z,6704.00
2018-06-19T05:03:40.173Z,5520.00
2018-06-19T05:04:40.417Z,5536.00
2018-06-19T05:05:40.657Z,6796.00
2018-06-19T05:06:40.923Z,6204.00
2018-06-19T05:07:41.135Z,6176.00
2018-06-19T05:08:41.379Z,5948.00
2018-06-19T05:09:41.600Z,5596.00
2018-06-19T05:10:41.891Z,5436.00
2018-06-19T05:11:42.104Z,5680.00
2018-06-19T05:12:42.411Z,6084.00
2018-06-19T05:13:42.592Z,6364.00
2018-06-19T05:14:42.820Z,6444.00
2018-06-19T05:15:43.059Z,6892.00
2018-06-19T05:16:43.308Z,7112.00
2018-06-19T05:17:43.564Z,5680.00
2018-06-19T05:18:43.808Z,5612.00
2018-06-19T05:19:44.036Z,5864.00
2018-06-19T05:20:44.284Z,5920.00
2018-06-19T05:21:44.509Z,6028.00
2018-06-19T05:22:44.752Z,6064.00
2018-06-19T05:23:45.020Z,6620.00
2018-06-19T05:24:45.238Z,6144.00
2018-06-19T05:25:45.494Z,6104.00
2018-06-19T05:26:45.736Z,6756.00
2018-06-19T05:27:45.973Z,6460.00
2018-06-19T05:28:46.211Z,6836.00
2018-06-19T05:29:46.455Z,7084.00
2018-06-19T05:30:46.702Z,6956.00
2018-06-19T05:31:46.935Z,6784.00
2018-06-19T05:32:47.179Z,6852.00
2018-06-19T05:33:47.450Z,6812.00
2018-06-19T05:34:47.707Z,6924.00
2018-06-19T05:35:47.942Z,7624.00
2018-06-19T05:36:48.192Z,6860.00
2018-06-19T05:37:48.437Z,6064.00
2018-06-19T05:38:48.670Z,6320.00
2018-06-19T05:39:48.914Z,5956.00
2018-06-19T05:40:49.159Z,6116.00
2018-06-19T05:41:49.401Z,5932.00
2018-06-19T05:42:49.635Z,6056.00
2018-06-19T05:43:49.893Z,6484.00
2018-06-19T05:44:50.131Z,6448.00
2018-06-19T05:45:50.356Z,7044.00
2018-06-19T05:46:50.609Z,6268.00
2018-06-19T05:47:50.849Z,7344.00
2018-06-19T05:48:51.086Z,7180.00
2018-06-19T05:49:51.331Z,7024.00
2018-06-19T05:50:51.571Z,6884.00
2018-06-19T05:51:51.816Z,6784.00
2018-06-19T05:52:52.056Z,6908.00
2018-06-19T05:53:52.301Z,6860.00
2018-06-19T05:54:52.541Z,6736.00
2018-06-19T05:55:52.790Z,6692.00
2018-06-19T05:56:53.022Z,6700.00
2018-06-19T05:57:53.264Z,6712.00
2018-06-19T05:58:53.501Z,6704.00
2018-06-19T05:59:53.744Z,6720.00
2018-06-19T06:00:53.985Z,6708.00
2018-06-19T06:01:54.231Z,6720.00
2018-06-19T06:02:54.466Z,6740.00
2018-06-19T06:03:54.714Z,6724.00
2018-06-19T06:04:54.942Z,5824.00
2018-06-19T06:05:55.215Z,5704.00
2018-06-19T06:06:55.422Z,6808.00
2018-06-19T06:07:55.672Z,6884.00
2018-06-19T06:08:55.916Z,6912.00
2018-06-19T06:09:56.154Z,6960.00
2018-06-19T06:10:56.370Z,6984.00
2018-06-19T06:11:56.613Z,7056.00
2018-06-19T06:12:56.849Z,7240.00
2018-06-19T06:13:57.094Z,7332.00
2018-06-19T06:14:57.337Z,7268.00
2018-06-19T06:15:57.575Z,7260.00
2018-06-19T06:16:57.822Z,7268.00
2018-06-19T06:17:58.062Z,7428.00
2018-06-19T06:18:58.319Z,7604.00
2018-06-19T06:19:58.544Z,7580.00
2018-06-19T06:20:58.786Z,7436.00
2018-06-19T06:21:59.036Z,6984.00
2018-06-19T06:22:59.279Z,7540.00
2018-06-19T06:23:59.530Z,6604.00
2018-06-19T06:24:59.772Z,7512.00
2018-06-19T06:26:00.014Z,7608.00
2018-06-19T06:27:00.246Z,7868.00
2018-06-19T06:28:00.512Z,8056.00
2018-06-19T06:29:00.736Z,7940.00
2018-06-19T06:30:00.961Z,7876.00
2018-06-19T06:31:01.234Z,7588.00
2018-06-19T06:32:01.447Z,8404.00
2018-06-19T06:33:01.687Z,8776.00
2018-06-19T06:34:01.934Z,9112.00
2018-06-19T06:35:02.178Z,9156.00
2018-06-19T06:36:02.440Z,8324.00
2018-06-19T06:37:02.693Z,8972.00
2018-06-19T06:38:02.897Z,8544.00
2018-06-19T06:39:03.133Z,8932.00
2018-06-19T06:40:03.376Z,9236.00
2018-06-19T06:41:03.615Z,9236.00
2018-06-19T06:42:03.868Z,8904.00
2018-06-19T06:43:04.117Z,8732.00
2018-06-19T06:44:04.357Z,8280.00
2018-06-19T06:45:04.589Z,7332.00
2018-06-19T06:46:04.832Z,8120.00
2018-06-19T06:47:05.066Z,8088.00
2018-06-19T06:48:05.301Z,8108.00
2018-06-19T06:49:05.546Z,8184.00
2018-06-19T06:50:05.819Z,8248.00
2018-06-19T06:51:06.035Z,8428.00
2018-06-19T06:52:06.267Z,8916.00
2018-06-19T06:53:06.501Z,9608.00
2018-06-19T06:54:06.753Z,10236.00
2018-06-19T06:55:07.009Z,10760.00
2018-06-19T06:56:07.250Z,11344.00
2018-06-19T06:57:07.484Z,12140.00
2018-06-19T06:58:07.731Z,12932.00
2018-06-19T06:59:07.975Z,13920.00
2018-06-19T07:00:08.206Z,15104.00
2018-06-19T07:01:08.452Z,15900.00
2018-06-19T07:02:08.686Z,16576.00
2018-06-19T07:03:08.930Z,16256.00
2018-06-19T07:04:09.172Z,17440.00
2018-06-19T07:05:09.419Z,18016.00
2018-06-19T07:06:09.642Z,18752.00
2018-06-19T07:07:09.898Z,18944.00
2018-06-19T07:08:10.142Z,18944.00
2018-06-19T07:09:10.384Z,19136.00
2018-06-19T07:10:10.674Z,19296.00
2018-06-19T07:11:10.877Z,19200.00
2018-06-19T07:12:11.123Z,19264.00
2018-06-19T07:13:11.391Z,19744.00
2018-06-19T07:14:11.607Z,19360.00
2018-06-19T07:15:11.841Z,18656.00
2018-06-19T07:16:12.093Z,18240.00
2018-06-19T07:17:12.333Z,17568.00
2018-06-19T07:18:12.579Z,17184.00
2018-06-19T07:19:12.936Z,16672.00
2018-06-19T07:20:13.072Z,16672.00
2018-06-19T07:21:13.320Z,16960.00
2018-06-19T07:22:13.567Z,16960.00
2018-06-19T07:23:13.825Z,17056.00
2018-06-19T07:24:14.065Z,17280.00
2018-06-19T07:25:14.295Z,17408.00
2018-06-19T07:26:14.598Z,17088.00
2018-06-19T07:27:14.796Z,16928.00
2018-06-19T07:28:15.025Z,16864.00
2018-06-19T07:29:15.270Z,16640.00
2018-06-19T07:30:15.504Z,16704.00
2018-06-19T07:31:15.754Z,17088.00
2018-06-19T07:32:15.994Z,17920.00
2018-06-19T07:33:16.232Z,18944.00
2018-06-19T07:34:16.484Z,20160.00
2018-06-19T07:35:16.712Z,20800.00
2018-06-19T07:36:16.961Z,21024.00
2018-06-19T07:37:17.206Z,22304.00
2018-06-19T07:38:17.489Z,22016.00
2018-06-19T07:39:17.705Z,22080.00
2018-06-19T07:40:17.948Z,22240.00
2018-06-19T07:41:18.197Z,22688.00
2018-06-19T07:42:18.420Z,23424.00
2018-06-19T07:43:18.667Z,22784.00
2018-06-19T07:44:18.904Z,22528.00
2018-06-19T07:45:19.147Z,21760.00
2018-06-19T07:46:19.400Z,21792.00
2018-06-19T07:47:19.643Z,21312.00
2018-06-19T07:48:19.889Z,21088.00
2018-06-19T07:49:20.133Z,20864.00
2018-06-19T07:50:20.367Z,20416.00
2018-06-19T07:51:20.618Z,20096.00
2018-06-19T07:52:20.854Z,19776.00
2018-06-19T07:53:21.109Z,19616.00
2018-06-19T07:54:21.369Z,19552.00
2018-06-19T07:55:21.592Z,19872.00
2018-06-19T07:56:21.840Z,20064.00
2018-06-19T07:57:22.096Z,19936.00
2018-06-19T07:58:22.324Z,19392.00
2018-06-19T07:59:22.580Z,18464.00
2018-06-19T08:00:22.835Z,17856.00
2018-06-19T08:01:23.065Z,17792.00
2018-06-19T08:02:23.309Z,18272.00
2018-06-19T08:03:23.551Z,18848.00
2018-06-19T08:04:23.816Z,18752.00
2018-06-19T08:05:24.060Z,18304.00
2018-06-19T08:06:24.318Z,18080.00
2018-06-19T08:07:24.547Z,18272.00
2018-06-19T08:08:24.803Z,19008.00
2018-06-19T08:09:25.057Z,20256.00
2018-06-19T08:10:25.298Z,21376.00
2018-06-19T08:11:25.556Z,22080.00
2018-06-19T08:12:25.784Z,22208.00
2018-06-19T08:13:26.039Z,22400.00
2018-06-19T08:14:26.277Z,23200.00
2018-06-19T08:15:26.537Z,23776.00
2018-06-19T08:16:26.775Z,24160.00
2018-06-19T08:17:27.039Z,24128.00
2018-06-19T08:18:27.262Z,23520.00
2018-06-19T08:19:27.508Z,23200.00
2018-06-19T08:20:27.755Z,23104.00
2018-06-19T08:21:28.002Z,22688.00
2018-06-19T08:22:28.244Z,21952.00
2018-06-19T08:23:28.491Z,21536.00
2018-06-19T08:24:28.738Z,21024.00
2018-06-19T08:25:28.987Z,20896.00
2018-06-19T08:26:29.246Z,21344.00
2018-06-19T08:27:29.498Z,21888.00
2018-06-19T08:28:29.732Z,21856.00
2018-06-19T08:29:29.984Z,21472.00
2018-06-19T08:30:30.229Z,21248.00
2018-06-19T08:31:30.464Z,20928.00
2018-06-19T08:32:30.714Z,20704.00
2018-06-19T08:33:30.952Z,21120.00
2018-06-19T08:34:31.199Z,21536.00
2018-06-19T08:35:31.442Z,22080.00
2018-06-19T08:36:31.678Z,21888.00
2018-06-19T08:37:31.938Z,21152.00
2018-06-19T08:38:32.160Z,20768.00
2018-06-19T08:39:32.426Z,20704.00
2018-06-19T08:40:32.669Z,20576.00
2018-06-19T08:41:32.922Z,19840.00
2018-06-19T08:42:33.161Z,19392.00
2018-06-19T08:43:33.409Z,19680.00
2018-06-19T08:44:33.656Z,20320.00
2018-06-19T08:45:33.902Z,20896.00
2018-06-19T08:46:34.146Z,20864.00
2018-06-19T08:47:34.405Z,20480.00
2018-06-19T08:48:34.641Z,20096.00
2018-06-19T08:49:34.883Z,20288.00
2018-06-19T08:50:35.143Z,20800.00
2018-06-19T08:51:35.378Z,21440.00
2018-06-19T08:52:35.629Z,21664.00
2018-06-19T08:53:35.878Z,22016.00
2018-06-19T08:54:36.127Z,22304.00
2018-06-19T08:55:36.375Z,22304.00
2018-06-19T08:56:36.632Z,23104.00
2018-06-19T08:57:36.875Z,24704.00
2018-06-19T08:58:37.119Z,26528.00
2018-06-19T08:59:37.371Z,28832.00
2018-06-19T09:00:37.617Z,29760.00
2018-06-19T09:01:37.864Z,29728.00
2018-06-19T09:02:38.112Z,30304.00
2018-06-19T09:03:38.365Z,30176.00
2018-06-19T09:04:38.610Z,28704.00
2018-06-19T09:05:38.862Z,28736.00
2018-06-19T09:06:39.108Z,42080.00
2018-06-19T09:07:39.356Z,32736.00
2018-06-19T09:08:39.614Z,37504.00
2018-06-19T09:09:39.870Z,36160.00
2018-06-19T09:10:40.123Z,39072.00
2018-06-19T09:11:49.077Z,39584.00
2018-06-19T09:12:49.809Z,34848.00
2018-06-19T09:13:49.669Z,55968.00
2018-06-19T09:14:41.410Z,64160.00
2018-06-19T09:15:41.655Z,38400.00
2018-06-19T09:16:41.922Z,34176.00
2018-06-19T09:17:42.153Z,33984.00
2018-06-19T09:18:42.407Z,32480.00
2018-06-19T09:19:42.656Z,32000.00
2018-06-19T09:20:42.903Z,30176.00
2018-06-19T09:21:43.182Z,27840.00
2018-06-19T09:22:43.390Z,26752.00
2018-06-19T09:23:43.644Z,27616.00
2018-06-19T09:24:43.884Z,32512.00
2018-06-19T09:25:44.134Z,32288.00
2018-06-19T09:26:44.384Z,32416.00
2018-06-19T09:27:44.633Z,31648.00
2018-06-19T09:28:44.886Z,30720.00
2018-06-19T09:29:45.179Z,29408.00
2018-06-19T09:30:45.386Z,28896.00
2018-06-19T09:31:45.635Z,28416.00
2018-06-19T09:32:45.887Z,29600.00
2018-06-19T09:33:46.132Z,29600.00
2018-06-19T09:34:46.382Z,28320.00
2018-06-19T09:35:46.636Z,27200.00
2018-06-19T09:36:46.882Z,27168.00
2018-06-19T09:37:47.131Z,28992.00
2018-06-19T09:38:47.383Z,36192.00
2018-06-19T09:39:47.662Z,32960.00
2018-06-19T09:40:47.883Z,31648.00
2018-06-19T09:41:48.133Z,38624.00
2018-06-19T09:42:48.383Z,33056.00
2018-06-19T09:43:48.632Z,36640.00
2018-06-19T09:44:48.883Z,39520.00
2018-06-19T09:45:49.134Z,42720.00
2018-06-19T09:46:49.384Z,56736.00
2018-06-19T09:47:49.635Z,33152.00
2018-06-19T09:48:49.884Z,31680.00
2018-06-19T09:49:50.134Z,30848.00
2018-06-19T09:50:50.384Z,28448.00
2018-06-19T09:51:50.631Z,28256.00
2018-06-19T09:52:50.882Z,26208.00
2018-06-19T09:53:51.138Z,23904.00
2018-06-19T09:54:51.382Z,23520.00
2018-06-19T09:55:51.637Z,23872.00
2018-06-19T09:56:51.883Z,24864.00
2018-06-19T09:57:52.137Z,26816.00
2018-06-19T09:58:52.381Z,25888.00
2018-06-19T09:59:52.633Z,26816.00
2018-06-19T10:00:52.882Z,29440.00
2018-06-19T10:01:53.131Z,29792.00
2018-06-19T10:02:53.380Z,29952.00
2018-06-19T10:03:53.629Z,30016.00
2018-06-19T10:04:53.880Z,30080.00
2018-06-19T10:05:54.127Z,29344.00
2018-06-19T10:06:54.373Z,27872.00
2018-06-19T10:07:54.622Z,27072.00
2018-06-19T10:08:54.870Z,26560.00
2018-06-19T10:09:55.119Z,26176.00
2018-06-19T10:10:55.368Z,26112.00
2018-06-19T10:11:55.625Z,26304.00
2018-06-19T10:12:55.867Z,26976.00
2018-06-19T10:13:56.113Z,27808.00
2018-06-19T10:14:56.366Z,28672.00
2018-06-19T10:15:56.617Z,29472.00
2018-06-19T10:16:56.867Z,30592.00
2018-06-19T10:17:57.122Z,30944.00
2018-06-19T10:18:57.367Z,34528.00
2018-06-19T10:19:57.617Z,29312.00
2018-06-19T10:20:57.865Z,28192.00
2018-06-19T10:21:58.115Z,29760.00
2018-06-19T10:22:58.367Z,32000.00
2018-06-19T10:23:58.614Z,33440.00
2018-06-19T10:24:58.866Z,34688.00
2018-06-19T10:25:59.115Z,40192.00
2018-06-19T10:26:59.363Z,35712.00
2018-06-19T10:27:59.616Z,36800.00
2018-06-19T10:28:59.863Z,35744.00
2018-06-19T10:30:00.113Z,55520.00
2018-06-19T10:31:00.364Z,39456.00
2018-06-19T10:32:00.616Z,39712.00
2018-06-19T10:33:00.863Z,33376.00
2018-06-19T10:34:01.113Z,32640.00
2018-06-19T10:35:01.420Z,32736.00
2018-06-19T10:36:01.613Z,34528.00
2018-06-19T10:37:01.860Z,34816.00
2018-06-19T10:38:02.106Z,43680.00
2018-06-19T10:39:02.356Z,47872.00
2018-06-19T10:40:02.602Z,36864.00
2018-06-19T10:41:02.856Z,35296.00
2018-06-19T10:42:03.098Z,35264.00
2018-06-19T10:43:03.348Z,36640.00
2018-06-19T10:44:03.598Z,35168.00
2018-06-19T10:45:03.841Z,32896.00
2018-06-19T10:46:04.094Z,31648.00
2018-06-19T10:47:04.345Z,30656.00
2018-06-19T10:48:04.595Z,29824.00
2018-06-19T10:49:04.847Z,29024.00
2018-06-19T10:50:05.101Z,27904.00
2018-06-19T10:51:05.356Z,26432.00
2018-06-19T10:52:05.602Z,24960.00
2018-06-19T10:53:05.853Z,23936.00
2018-06-19T10:54:06.097Z,23360.00
2018-06-19T10:55:06.347Z,23584.00
2018-06-19T10:56:06.613Z,23872.00
2018-06-19T10:57:06.837Z,23840.00
2018-06-19T10:58:07.089Z,23936.00
2018-06-19T10:59:07.338Z,23776.00
2018-06-19T11:00:07.589Z,23744.00
2018-06-19T11:01:07.840Z,23776.00
2018-06-19T11:02:08.090Z,22944.00
2018-06-19T11:03:08.338Z,22144.00
2018-06-19T11:04:08.589Z,21088.00
2018-06-19T11:05:08.858Z,19712.00
2018-06-19T11:06:09.088Z,18528.00
2018-06-19T11:07:09.400Z,17824.00
2018-06-19T11:08:09.593Z,17888.00
2018-06-19T11:09:09.836Z,18752.00
2018-06-19T11:10:10.086Z,19904.00
2018-06-19T11:11:10.338Z,20704.00
2018-06-19T11:12:10.584Z,21312.00
2018-06-19T11:13:10.830Z,21696.00
2018-06-19T11:14:11.129Z,21888.00
2018-06-19T11:15:11.322Z,21952.00
2018-06-19T11:16:11.572Z,21920.00
2018-06-19T11:17:11.826Z,21600.00
2018-06-19T11:18:12.074Z,20960.00
2018-06-19T11:19:12.324Z,20160.00
2018-06-19T11:20:12.571Z,19072.00
2018-06-19T11:21:12.821Z,18112.00
2018-06-19T11:22:13.069Z,17408.00
2018-06-19T11:23:13.319Z,16992.00
2018-06-19T11:24:13.568Z,17216.00
2018-06-19T11:25:13.817Z,18016.00
2018-06-19T11:26:14.065Z,18944.00
2018-06-19T11:27:14.311Z,19840.00
2018-06-19T11:28:14.558Z,20576.00
2018-06-19T11:29:14.809Z,21280.00
2018-06-19T11:30:15.061Z,21536.00
2018-06-19T11:31:15.306Z,20896.00
2018-06-19T11:32:15.555Z,20064.00
2018-06-19T11:33:15.803Z,19744.00
2018-06-19T11:34:16.054Z,20000.00
2018-06-19T11:35:16.295Z,20416.00
2018-06-19T11:36:16.548Z,20672.00
2018-06-19T11:37:16.798Z,20864.00
2018-06-19T11:38:17.048Z,21120.00
2018-06-19T11:39:17.296Z,21504.00
2018-06-19T11:40:17.542Z,21824.00
2018-06-19T11:41:17.794Z,21792.00
2018-06-19T11:42:18.043Z,21536.00
2018-06-19T11:43:18.290Z,20736.00
2018-06-19T11:44:18.542Z,20192.00
2018-06-19T11:45:18.791Z,19584.00
2018-06-19T11:46:19.041Z,18720.00
2018-06-19T11:47:19.295Z,17664.00
2018-06-19T11:48:19.539Z,16252.00
2018-06-19T11:49:19.829Z,15308.00
2018-06-19T11:50:20.038Z,14712.00
2018-06-19T11:51:20.317Z,14400.00
2018-06-19T11:52:20.536Z,14200.00
2018-06-19T11:53:20.785Z,14232.00
2018-06-19T11:54:21.036Z,14540.00
2018-06-19T11:55:21.285Z,15152.00
2018-06-19T11:56:21.533Z,16052.00
2018-06-19T11:57:21.781Z,17184.00
2018-06-19T11:58:22.033Z,17984.00
2018-06-19T11:59:22.279Z,18560.00
2018-06-19T12:00:22.530Z,19264.00
2018-06-19T12:01:22.775Z,19872.00
2018-06-19T12:02:23.027Z,19904.00
2018-06-19T12:03:23.273Z,19168.00
2018-06-19T12:04:23.520Z,17984.00
2018-06-19T12:05:23.759Z,16396.00
2018-06-19T12:06:24.005Z,15648.00
2018-06-19T12:07:24.255Z,15608.00
2018-06-19T12:08:24.495Z,14948.00
2018-06-19T12:09:24.743Z,13984.00
2018-06-19T12:10:24.991Z,12756.00
2018-06-19T12:11:25.240Z,11544.00
2018-06-19T12:12:25.489Z,10428.00
2018-06-19T12:13:25.740Z,9556.00
2018-06-19T12:14:25.984Z,8916.00
2018-06-19T12:15:26.232Z,8508.00